createdAt,value
2017-11-15T20:25:56.042Z,32.37
2017-11-15T20:28:25.411Z,33.17
2017-11-15T20:30:55.426Z,34.53
2017-11-15T20:33:25.368Z,35.33
2017-11-15T20:35:54.712Z,35.67
2017-11-15T20:38:24.078Z,38.60
2017-11-15T20:40:54.578Z,39.10
2017-11-15T20:43:23.932Z,40.50
2017-11-15T20:45:53.307Z,36.10
2017-11-15T20:48:22.951Z,37.07
2017-11-15T20:50:52.742Z,38.30
2017-11-15T20:53:22.213Z,40.20
2017-11-15T20:55:51.947Z,36.50
2017-11-15T20:58:21.106Z,40.90
2017-11-15T21:00:50.461Z,37.77
2017-11-15T21:03:20.861Z,38.63
2017-11-15T21:05:50.041Z,38.07
2017-11-15T21:08:19.697Z,42.20
2017-11-15T21:10:51.952Z,38.80
2017-11-15T21:13:22.073Z,39.83
2017-11-15T21:15:51.464Z,35.23
2017-11-15T21:18:21.199Z,36.97
2017-11-15T21:20:50.625Z,36.93
2017-11-15T21:23:19.999Z,36.63
2017-11-15T21:25:50.526Z,34.93
2017-11-15T21:28:19.751Z,34.50
2017-11-15T21:30:49.077Z,36.50
2017-11-15T21:33:18.514Z,36.80
2017-11-15T21:35:47.685Z,37.40
2017-11-15T21:38:17.800Z,36.30
2017-11-15T21:40:48.297Z,32.33
2017-11-15T21:43:18.614Z,32.57
2017-11-15T21:45:49.197Z,33.90
2017-11-15T21:48:18.556Z,33.47
2017-11-15T21:50:48.000Z,33.73
2017-11-15T21:53:17.490Z,32.60
2017-11-15T21:55:47.106Z,34.43
2017-11-15T21:58:16.461Z,34.47
2017-11-15T22:00:46.124Z,32.50
2017-11-15T22:03:15.506Z,36.73
2017-11-15T22:05:45.752Z,34.27
2017-11-15T22:08:16.836Z,34.50
2017-11-15T22:10:46.213Z,34.97
2017-11-15T22:13:17.127Z,35.80
2017-11-15T22:15:47.508Z,34.33
2017-11-15T22:18:16.900Z,35.07
2017-11-15T22:20:46.607Z,33.50
2017-11-15T22:23:15.960Z,32.50
2017-11-15T22:25:45.306Z,34.23
2017-11-15T22:28:14.862Z,31.70
2017-11-15T22:30:45.360Z,28.23
2017-11-15T22:33:14.718Z,29.07
2017-11-15T22:35:44.069Z,26.83
2017-11-15T22:38:14.560Z,28.47
2017-11-15T22:40:48.581Z,28.53
2017-11-15T22:43:18.763Z,26.50
2017-11-15T22:45:50.206Z,26.23
2017-11-15T22:48:19.868Z,27.80
2017-11-15T22:50:49.253Z,29.67
2017-11-15T22:53:18.596Z,28.40
2017-11-15T22:55:48.335Z,27.43
2017-11-15T22:58:17.867Z,29.83
2017-11-15T23:00:47.219Z,28.60
2017-11-15T23:03:17.046Z,27.10
2017-11-15T23:05:46.418Z,28.83
2017-11-15T23:08:17.639Z,27.00
2017-11-15T23:10:47.095Z,26.87
2017-11-15T23:13:16.433Z,26.57
2017-11-15T23:15:45.793Z,25.97
2017-11-15T23:18:15.818Z,26.27
2017-11-15T23:20:46.309Z,25.50
2017-11-15T23:23:15.760Z,26.20
2017-11-15T23:25:45.132Z,23.87
2017-11-15T23:28:15.510Z,23.90
2017-11-15T23:30:44.913Z,24.73
2017-11-15T23:33:14.280Z,23.60
2017-11-15T23:35:43.885Z,24.57
2017-11-15T23:38:13.244Z,23.90
2017-11-15T23:40:42.465Z,22.93
2017-11-15T23:43:12.316Z,23.43
2017-11-15T23:45:41.682Z,23.83
2017-11-15T23:48:11.799Z,24.63
2017-11-15T23:50:41.160Z,23.40
2017-11-15T23:53:10.318Z,23.83
2017-11-15T23:55:40.285Z,24.03
2017-11-15T23:58:09.871Z,26.03
